createdAt,value
2018-05-18T00:00:57.725Z,101236.11
2018-05-18T00:03:25.253Z,101237.52
2018-05-18T00:05:52.755Z,101239.98
2018-05-18T00:08:20.325Z,101238.06
2018-05-18T00:10:47.871Z,101236.05
2018-05-18T00:13:15.401Z,101233.52
2018-05-18T00:15:42.927Z,101238.67
2018-05-18T00:18:10.487Z,101238.06
2018-05-18T00:20:38.023Z,101239.78
2018-05-18T00:23:06.760Z,101245.64
2018-05-18T00:25:34.345Z,101246.25
2018-05-18T00:28:01.874Z,101250.09
2018-05-18T00:30:29.623Z,101246.48
2018-05-18T00:32:57.158Z,101250.09
2018-05-18T00:35:24.657Z,101246.95
2018-05-18T00:37:52.170Z,101246.91
2018-05-18T00:40:20.016Z,101248.53
2018-05-18T00:42:48.146Z,101252.56
2018-05-18T00:45:15.652Z,101257.30
2018-05-18T00:47:43.208Z,101248.20
2018-05-18T00:50:10.733Z,101248.03
2018-05-18T00:52:38.253Z,101251.05
2018-05-18T00:55:17.601Z,101249.56
2018-05-18T00:57:45.663Z,101250.75
2018-05-18T01:00:13.294Z,101257.47
2018-05-18T01:02:40.841Z,101256.83
2018-05-18T01:05:08.356Z,101255.71
2018-05-18T01:07:35.928Z,101259.84
2018-05-18T01:10:03.504Z,101259.64
2018-05-18T01:12:31.018Z,101265.53
2018-05-18T01:14:58.520Z,101264.69
2018-05-18T01:17:26.062Z,101261.02
2018-05-18T01:19:53.590Z,101256.99
2018-05-18T01:22:21.094Z,101260.33
2018-05-18T01:24:48.981Z,101257.53
2018-05-18T01:27:16.776Z,101258.62
2018-05-18T01:29:44.289Z,101254.51
2018-05-18T01:32:11.856Z,101258.27
2018-05-18T01:34:39.484Z,101252.78
2018-05-18T01:37:07.181Z,101256.50
2018-05-18T01:39:34.786Z,101257.18
2018-05-18T01:42:02.329Z,101262.88
2018-05-18T01:44:30.118Z,101273.59
2018-05-18T01:46:58.077Z,101265.95
2018-05-18T01:49:25.680Z,101267.14
2018-05-18T01:51:53.507Z,101264.92
2018-05-18T01:54:21.045Z,101262.27
2018-05-18T01:56:48.727Z,101273.73
2018-05-18T01:59:16.237Z,101267.41
2018-05-18T02:01:43.768Z,101269.97
2018-05-18T02:04:11.307Z,101272.16
2018-05-18T02:06:38.823Z,101268.14
2018-05-18T02:09:06.448Z,101264.34
2018-05-18T02:11:34.006Z,101273.72
2018-05-18T02:14:01.551Z,101276.28
2018-05-18T02:16:29.108Z,101270.80
2018-05-18T02:18:56.642Z,101271.58
2018-05-18T02:21:24.176Z,101275.68
2018-05-18T02:23:52.020Z,101276.19
2018-05-18T02:26:19.541Z,101274.97
2018-05-18T02:28:47.300Z,101274.88
2018-05-18T02:31:14.817Z,101277.56
2018-05-18T02:33:43.058Z,101278.13
2018-05-18T02:36:10.607Z,101276.89
2018-05-18T02:38:38.144Z,101280.78
2018-05-18T02:41:05.802Z,101283.61
2018-05-18T02:43:33.342Z,101281.53
2018-05-18T02:46:00.858Z,101276.75
2018-05-18T02:48:28.406Z,101281.61
2018-05-18T02:50:56.046Z,101284.78
2018-05-18T02:53:23.862Z,101285.14
2018-05-18T02:55:51.393Z,101284.03
2018-05-18T02:58:18.934Z,101282.33
2018-05-18T03:00:46.745Z,101283.86
2018-05-18T03:03:14.312Z,101282.24
2018-05-18T03:05:42.193Z,101292.31
2018-05-18T03:08:09.890Z,101288.98
2018-05-18T03:10:37.706Z,101287.45
2018-05-18T03:13:05.678Z,101289.64
2018-05-18T03:15:33.547Z,101291.31
2018-05-18T03:18:01.070Z,101296.26
2018-05-18T03:20:28.608Z,101303.50
2018-05-18T03:22:56.129Z,101300.22
2018-05-18T03:25:23.659Z,101295.36
2018-05-18T03:27:51.206Z,101297.81
2018-05-18T03:30:18.727Z,101305.73
2018-05-18T03:32:46.229Z,101314.80
2018-05-18T03:35:13.837Z,101315.20
2018-05-18T03:37:41.347Z,101314.02
2018-05-18T03:40:08.848Z,101312.52
2018-05-18T03:42:36.389Z,101311.41
2018-05-18T03:45:03.912Z,101313.97
2018-05-18T03:47:31.427Z,101319.34
2018-05-18T03:49:58.967Z,101314.94
2018-05-18T03:52:26.493Z,101315.65
2018-05-18T03:54:54.139Z,101315.02
2018-05-18T03:57:21.696Z,101322.45
2018-05-18T03:59:49.226Z,101320.06
2018-05-18T04:02:28.680Z,101317.66
2018-05-18T04:11:10.018Z,101340.22
2018-05-18T04:13:37.556Z,101324.29
2018-05-18T04:16:05.077Z,101326.31
2018-05-18T04:18:32.602Z,101320.84
2018-05-18T04:21:00.162Z,101321.16
2018-05-18T04:23:27.679Z,101328.66
2018-05-18T04:25:55.480Z,101327.23
2018-05-18T04:28:23.353Z,101332.78
2018-05-18T04:30:50.905Z,101332.36
2018-05-18T04:33:18.438Z,101335.83
2018-05-18T04:35:45.972Z,101332.81
2018-05-18T04:38:13.589Z,101336.39
2018-05-18T04:40:41.125Z,101332.41
2018-05-18T04:43:08.792Z,101332.41
2018-05-18T04:45:36.363Z,101330.38
2018-05-18T04:48:03.904Z,101333.39
2018-05-18T04:50:31.525Z,101334.26
2018-05-18T04:52:59.072Z,101338.77
2018-05-18T04:55:26.821Z,101341.80
2018-05-18T04:57:54.347Z,101338.84
2018-05-18T05:00:21.861Z,101344.16
2018-05-18T05:02:49.374Z,101351.43
2018-05-18T05:05:16.928Z,101345.67
2018-05-18T05:07:44.487Z,101344.03
2018-05-18T05:10:11.992Z,101352.20
2018-05-18T05:12:39.847Z,101353.92
2018-05-18T05:15:07.392Z,101359.80
2018-05-18T05:17:34.903Z,101357.84
2018-05-18T05:20:02.448Z,101364.47
2018-05-18T05:22:29.975Z,101366.84
2018-05-18T05:24:57.498Z,101370.89
2018-05-18T05:27:25.051Z,101370.84
2018-05-18T05:29:52.549Z,101376.76
2018-05-18T05:32:20.075Z,101370.52
2018-05-18T05:34:47.599Z,101377.34
2018-05-18T05:37:15.123Z,101370.62
2018-05-18T05:39:42.638Z,101365.77
2018-05-18T05:42:10.240Z,101377.27
2018-05-18T05:44:38.026Z,101376.56
2018-05-18T05:47:05.545Z,101374.05
2018-05-18T05:49:33.252Z,101376.86
2018-05-18T05:52:01.001Z,101381.11
2018-05-18T05:54:28.551Z,101383.05
2018-05-18T05:56:56.100Z,101384.70
2018-05-18T05:59:23.638Z,101388.91
2018-05-18T06:01:51.348Z,101387.33
2018-05-18T06:04:19.553Z,101395.42
2018-05-18T06:06:47.072Z,101386.44
2018-05-18T06:09:14.597Z,101390.83
2018-05-18T06:11:42.494Z,101385.69
2018-05-18T06:14:10.040Z,101390.01
2018-05-18T06:16:37.589Z,101397.23
2018-05-18T06:19:05.131Z,101397.98
2018-05-18T06:21:32.663Z,101406.03
2018-05-18T06:24:00.239Z,101396.28
2018-05-18T06:26:28.157Z,101402.79
2018-05-18T06:28:55.926Z,101396.00
2018-05-18T06:31:23.482Z,101399.16
2018-05-18T06:33:51.039Z,101400.57
2018-05-18T06:36:18.604Z,101404.42
2018-05-18T06:38:46.169Z,101402.56
2018-05-18T06:41:14.882Z,101399.96
2018-05-18T06:43:42.495Z,101412.45
2018-05-18T06:46:10.001Z,101405.06
2018-05-18T06:48:37.568Z,101410.20
2018-05-18T06:51:05.099Z,101419.84
2018-05-18T06:53:32.619Z,101415.46
2018-05-18T06:56:00.886Z,101422.11
2018-05-18T06:58:28.381Z,101432.22
2018-05-18T07:00:55.893Z,101419.89
2018-05-18T07:03:23.460Z,101420.41
2018-05-18T07:05:50.991Z,101422.05
2018-05-18T07:08:18.518Z,101417.80
2018-05-18T07:10:46.146Z,101420.14
2018-05-18T07:13:13.675Z,101418.75
2018-05-18T07:15:41.194Z,101410.76
2018-05-18T07:18:08.742Z,101418.43
2018-05-18T07:20:36.253Z,101416.98
2018-05-18T07:23:03.867Z,101415.91
2018-05-18T07:25:31.804Z,101418.06
2018-05-18T07:27:59.312Z,101412.98
2018-05-18T07:30:27.147Z,101409.00
2018-05-18T07:32:54.709Z,101414.14
2018-05-18T07:35:22.318Z,101414.55
2018-05-18T07:37:49.950Z,101407.83
2018-05-18T07:40:17.517Z,101412.14
2018-05-18T07:42:45.046Z,101424.97
2018-05-18T07:45:12.574Z,101411.86
2018-05-18T07:47:40.126Z,101416.00
2018-05-18T07:50:07.774Z,101418.78
2018-05-18T07:52:35.252Z,101421.53
2018-05-18T07:55:03.109Z,101419.09
2018-05-18T07:57:30.759Z,101420.66
2018-05-18T07:59:59.210Z,101415.36
2018-05-18T08:02:27.407Z,101417.05
2018-05-18T08:04:54.928Z,101420.20
2018-05-18T08:07:22.651Z,101421.03
2018-05-18T08:09:50.211Z,101420.80
2018-05-18T08:12:18.051Z,101425.09
2018-05-18T08:14:45.573Z,101427.69
2018-05-18T08:17:13.144Z,101425.15
2018-05-18T08:19:40.669Z,101427.77
2018-05-18T08:22:08.342Z,101426.53
2018-05-18T08:24:36.003Z,101423.03
2018-05-18T08:27:15.257Z,101428.45
2018-05-18T08:29:43.033Z,101428.17
2018-05-18T08:32:10.693Z,101430.45
2018-05-18T08:34:38.233Z,101436.27
2018-05-18T08:37:06.786Z,101443.12
2018-05-18T08:39:34.316Z,101444.88
2018-05-18T08:42:01.950Z,101448.70
2018-05-18T08:44:29.943Z,101458.79
2018-05-18T08:46:57.631Z,101453.00
2018-05-18T08:49:25.195Z,101464.17
2018-05-18T08:51:52.761Z,101460.23
2018-05-18T08:54:20.317Z,101461.16
2018-05-18T08:56:47.850Z,101474.31
2018-05-18T08:59:15.444Z,101469.00
2018-05-18T09:01:42.987Z,101475.52
2018-05-18T09:04:10.490Z,101472.39
2018-05-18T09:06:38.113Z,101470.25
2018-05-18T09:09:06.368Z,101476.86
2018-05-18T09:11:34.087Z,101475.94
2018-05-18T09:14:01.699Z,101472.70
2018-05-18T09:16:29.207Z,101479.66
2018-05-18T09:18:56.729Z,101488.38
2018-05-18T09:21:24.418Z,101481.58
2018-05-18T09:23:51.933Z,101481.68
2018-05-18T09:26:19.530Z,101479.16
2018-05-18T09:28:47.026Z,101481.45
2018-05-18T09:31:14.552Z,101484.70
2018-05-18T09:33:42.082Z,101487.30
2018-05-18T09:36:09.844Z,101492.08
2018-05-18T09:38:37.333Z,101485.70
2018-05-18T09:41:05.001Z,101486.84
2018-05-18T09:43:32.553Z,101494.91
2018-05-18T09:46:00.071Z,101494.30
2018-05-18T09:48:27.596Z,101496.84
2018-05-18T09:50:55.157Z,101499.41
2018-05-18T09:53:22.665Z,101498.16
2018-05-18T09:55:50.172Z,101500.50
2018-05-18T09:58:17.708Z,101502.80
2018-05-18T10:00:45.252Z,101507.33
2018-05-18T10:03:12.753Z,101504.23
2018-05-18T10:05:41.101Z,101496.77
2018-05-18T10:08:08.873Z,101503.13
2018-05-18T10:10:36.393Z,101501.64
2018-05-18T10:13:03.936Z,101498.01
2018-05-18T10:15:31.820Z,101501.92
2018-05-18T10:17:59.376Z,101508.18
2018-05-18T10:20:26.933Z,101508.42
2018-05-18T10:22:54.528Z,101512.68
2018-05-18T10:25:26.011Z,101508.45
2018-05-18T10:27:53.527Z,101512.56
2018-05-18T10:30:29.179Z,101513.51
2018-05-18T10:32:56.713Z,101513.95
2018-05-18T10:35:24.233Z,101514.19
2018-05-18T10:37:51.762Z,101507.02
2018-05-18T10:40:19.302Z,101517.23
2018-05-18T10:42:46.816Z,101519.17
2018-05-18T10:45:14.416Z,101524.14
2018-05-18T10:47:41.967Z,101520.39
2018-05-18T10:50:09.508Z,101520.58
2018-05-18T10:52:37.251Z,101525.30
2018-05-18T10:55:04.785Z,101522.34
2018-05-18T10:57:32.314Z,101524.55
2018-05-18T11:00:00.023Z,101528.61
2018-05-18T11:02:27.567Z,101523.81
2018-05-18T11:04:55.142Z,101526.60
2018-05-18T11:07:22.976Z,101528.30
2018-05-18T11:09:50.514Z,101531.46
2018-05-18T11:12:18.025Z,101533.95
2018-05-18T11:14:45.566Z,101520.19
2018-05-18T11:17:13.428Z,101529.41
2018-05-18T11:19:41.417Z,101529.78
2018-05-18T11:22:09.881Z,101533.09
2018-05-18T11:24:37.408Z,101530.06
2018-05-18T11:27:04.915Z,101529.41
2018-05-18T11:29:32.482Z,101537.08
2018-05-18T11:32:00.100Z,101531.05
2018-05-18T11:34:28.011Z,101530.70
2018-05-18T11:36:55.588Z,101528.33
2018-05-18T11:39:23.092Z,101529.55
2018-05-18T11:41:51.560Z,101531.84
2018-05-18T11:44:19.153Z,101530.17
2018-05-18T11:46:46.818Z,101527.41
2018-05-18T11:49:14.337Z,101534.04
2018-05-18T11:51:41.866Z,101532.11
2018-05-18T11:54:09.380Z,101534.27
2018-05-18T11:56:36.916Z,101530.74
2018-05-18T11:59:04.459Z,101528.54
2018-05-18T12:01:31.991Z,101533.36
2018-05-18T12:03:59.743Z,101538.98
2018-05-18T12:06:27.297Z,101538.09
2018-05-18T12:08:54.817Z,101541.36
2018-05-18T12:11:23.093Z,101538.72
2018-05-18T12:13:50.630Z,101548.20
2018-05-18T12:16:18.140Z,101540.12
2018-05-18T12:18:45.668Z,101540.12
2018-05-18T12:21:13.206Z,101548.77
2018-05-18T12:23:40.964Z,101548.09
2018-05-18T12:26:08.539Z,101541.27
2018-05-18T12:28:36.990Z,101546.10
2018-05-18T12:31:04.503Z,101547.88
2018-05-18T12:33:32.026Z,101544.11
2018-05-18T12:35:59.893Z,101535.70
2018-05-18T12:38:27.434Z,101536.69
2018-05-18T12:40:55.064Z,101537.78
2018-05-18T12:43:22.665Z,101540.84
2018-05-18T12:45:50.190Z,101540.62
2018-05-18T12:48:17.773Z,101545.20
2018-05-18T12:50:45.657Z,101548.10
2018-05-18T12:53:13.798Z,101537.21
2018-05-18T12:55:41.348Z,101544.79
2018-05-18T12:58:08.885Z,101542.41
2018-05-18T13:00:36.480Z,101536.19
2018-05-18T13:03:04.011Z,101539.91
2018-05-18T13:05:31.592Z,101533.41
2018-05-18T13:07:59.104Z,101540.36
2018-05-18T13:10:26.633Z,101541.94
2018-05-18T13:12:54.177Z,101544.05
2018-05-18T13:15:21.721Z,101544.85
2018-05-18T13:17:49.257Z,101546.62
2018-05-18T13:20:16.796Z,101545.17
2018-05-18T13:22:44.303Z,101541.00
2018-05-18T13:25:11.822Z,101540.66
2018-05-18T13:27:40.147Z,101535.43
2018-05-18T13:30:08.084Z,101541.87
2018-05-18T13:32:35.945Z,101538.08
2018-05-18T13:35:04.379Z,101537.97
2018-05-18T13:37:31.891Z,101537.10
2018-05-18T13:39:59.428Z,101536.11
2018-05-18T13:42:26.953Z,101531.44
2018-05-18T13:44:54.609Z,101528.36
2018-05-18T13:47:21.973Z,101531.05
2018-05-18T13:49:49.547Z,101533.34
2018-05-18T13:52:17.126Z,101532.80
2018-05-18T13:54:45.340Z,101534.27
2018-05-18T13:57:12.913Z,101539.10
2018-05-18T13:59:40.408Z,101537.71
2018-05-18T14:02:07.921Z,101532.13
2018-05-18T14:04:35.458Z,101534.02
2018-05-18T14:07:02.987Z,101537.84
2018-05-18T14:09:30.772Z,101531.39
2018-05-18T14:11:58.640Z,101537.47
2018-05-18T14:14:27.024Z,101535.48
2018-05-18T14:16:54.591Z,101532.14
2018-05-18T14:19:22.423Z,101528.89
2018-05-18T14:21:49.959Z,101529.03
2018-05-18T14:24:17.482Z,101536.06
2018-05-18T14:26:45.074Z,101529.26
2018-05-18T14:29:12.600Z,101532.84
2018-05-18T14:31:40.114Z,101536.91
2018-05-18T14:34:07.692Z,101531.56
2018-05-18T14:36:35.284Z,101540.11
2018-05-18T14:39:02.887Z,101534.55
2018-05-18T14:41:30.449Z,101533.81
2018-05-18T14:43:58.468Z,101535.98
2018-05-18T14:46:25.907Z,101531.91
2018-05-18T14:48:53.438Z,101536.00
2018-05-18T14:51:20.995Z,101533.39
2018-05-18T14:53:48.521Z,101532.46
2018-05-18T14:56:16.301Z,101534.86
2018-05-18T14:58:43.845Z,101526.46
2018-05-18T15:01:11.362Z,101527.25
2018-05-18T15:03:38.920Z,101525.94
2018-05-18T15:06:06.443Z,101520.73
2018-05-18T15:08:33.955Z,101527.73
2018-05-18T15:11:01.538Z,101524.56
2018-05-18T15:13:29.045Z,101525.75
2018-05-18T15:15:56.583Z,101531.26
2018-05-18T15:18:24.366Z,101532.41
2018-05-18T15:20:51.961Z,101530.23
2018-05-18T15:23:19.544Z,101535.51
2018-05-18T15:25:47.107Z,101536.00
2018-05-18T15:28:14.648Z,101535.77
2018-05-18T15:30:42.163Z,101543.62
2018-05-18T15:33:09.735Z,101536.05
2018-05-18T15:35:37.271Z,101537.95
2018-05-18T15:38:04.967Z,101540.52
2018-05-18T15:40:32.564Z,101531.15
2018-05-18T15:43:00.082Z,101533.98
2018-05-18T15:45:27.626Z,101537.12
2018-05-18T15:47:55.454Z,101532.66
2018-05-18T15:50:22.967Z,101533.02
2018-05-18T15:52:50.793Z,101527.07
2018-05-18T15:55:18.353Z,101529.05
2018-05-18T15:57:45.865Z,101527.63
2018-05-18T16:00:13.526Z,101525.46
2018-05-18T16:02:41.451Z,101535.68
2018-05-18T16:05:09.053Z,101526.95
2018-05-18T16:07:37.658Z,101528.15
2018-05-18T16:10:05.227Z,101528.55
2018-05-18T16:12:33.069Z,101526.91
2018-05-18T16:15:00.626Z,101532.86
2018-05-18T16:17:28.290Z,101535.19
2018-05-18T16:19:55.818Z,101543.09
2018-05-18T16:22:23.657Z,101551.84
2018-05-18T16:24:51.295Z,101542.06
2018-05-18T16:27:18.798Z,101545.08
2018-05-18T16:29:46.326Z,101547.17
2018-05-18T16:32:13.915Z,101544.89
2018-05-18T16:34:42.242Z,101550.40
2018-05-18T16:37:09.777Z,101544.44
2018-05-18T16:39:37.326Z,101540.01
2018-05-18T16:42:04.846Z,101548.37
2018-05-18T16:44:32.549Z,101545.59
2018-05-18T16:47:00.084Z,101553.89
2018-05-18T16:49:27.593Z,101550.37
2018-05-18T16:51:55.127Z,101551.97
2018-05-18T16:54:22.681Z,101556.05
2018-05-18T16:56:50.193Z,101552.44
2018-05-18T16:59:17.713Z,101554.69
2018-05-18T17:01:45.467Z,101556.69
2018-05-18T17:04:13.094Z,101553.20
2018-05-18T17:06:40.613Z,101568.23
2018-05-18T17:09:08.357Z,101563.02
2018-05-18T17:11:35.895Z,101560.19
2018-05-18T17:14:04.234Z,101564.97
2018-05-18T17:16:32.047Z,101565.71
2018-05-18T17:18:59.573Z,101569.58
2018-05-18T17:21:27.241Z,101568.58
2018-05-18T17:23:54.871Z,101564.81
2018-05-18T17:26:22.427Z,101568.64
2018-05-18T17:28:50.032Z,101565.13
2018-05-18T17:31:17.598Z,101564.23
2018-05-18T17:33:45.139Z,101559.34
2018-05-18T17:36:12.807Z,101556.66
2018-05-18T17:38:40.395Z,101559.11
2018-05-18T17:41:07.957Z,101557.41
2018-05-18T17:43:35.474Z,101558.53
2018-05-18T17:46:03.333Z,101557.16
2018-05-18T17:48:30.853Z,101566.63
2018-05-18T17:50:58.823Z,101565.20
2018-05-18T17:53:26.402Z,101567.72
2018-05-18T17:55:54.048Z,101570.53
2018-05-18T17:58:21.561Z,101573.22
2018-05-18T18:00:49.160Z,101575.80
2018-05-18T18:03:16.878Z,101571.26
2018-05-18T18:05:44.478Z,101573.31
2018-05-18T18:08:12.019Z,101576.30
2018-05-18T18:10:39.549Z,101576.42
2018-05-18T18:13:07.076Z,101573.11
2018-05-18T18:15:34.604Z,101570.95
2018-05-18T18:18:02.184Z,101573.82
2018-05-18T18:20:29.693Z,101578.56
2018-05-18T18:22:57.376Z,101574.80
2018-05-18T18:25:25.189Z,101577.75
2018-05-18T18:27:52.760Z,101572.89
2018-05-18T18:30:20.433Z,101576.89
2018-05-18T18:32:48.285Z,101574.54
2018-05-18T18:35:15.865Z,101578.74
2018-05-18T18:37:43.570Z,101579.16
2018-05-18T18:40:11.086Z,101586.63
2018-05-18T18:42:38.618Z,101592.42
2018-05-18T18:45:06.177Z,101592.59
2018-05-18T18:47:34.675Z,101594.62
2018-05-18T18:50:02.530Z,101604.13
2018-05-18T18:52:30.391Z,101609.80
2018-05-18T18:54:58.931Z,101608.45
2018-05-18T18:57:26.569Z,101618.96
2018-05-18T18:59:54.508Z,101622.38
2018-05-18T19:02:22.320Z,101619.05
2018-05-18T19:04:49.916Z,101621.86
2018-05-18T19:07:17.540Z,101621.25
2018-05-18T19:09:45.081Z,101622.17
2018-05-18T19:12:12.691Z,101626.77
2018-05-18T19:14:41.349Z,101628.71
2018-05-18T19:17:08.915Z,101632.56
2018-05-18T19:19:36.436Z,101636.33
2018-05-18T19:22:03.975Z,101640.44
2018-05-18T19:24:31.985Z,101637.83
2018-05-18T19:26:59.557Z,101640.59
2018-05-18T19:29:27.126Z,101641.75
2018-05-18T19:31:54.646Z,101641.25
2018-05-18T19:34:22.180Z,101639.43
2018-05-18T19:36:49.755Z,101640.47
2018-05-18T19:39:17.268Z,101635.37
2018-05-18T19:41:44.796Z,101636.20
2018-05-18T19:44:12.887Z,101642.25
2018-05-18T19:46:40.457Z,101635.56
2018-05-18T19:49:08.050Z,101639.73
2018-05-18T19:51:35.802Z,101641.44
2018-05-18T19:54:03.337Z,101643.42
2018-05-18T19:56:30.944Z,101640.81
2018-05-18T19:58:58.483Z,101637.74
2018-05-18T20:01:26.875Z,101636.22
2018-05-18T20:03:54.411Z,101629.67
2018-05-18T20:06:21.980Z,101628.92
2018-05-18T20:08:49.973Z,101633.10
2018-05-18T20:11:17.513Z,101636.71
2018-05-18T20:13:45.093Z,101639.02
2018-05-18T20:16:12.621Z,101642.34
2018-05-18T20:18:40.201Z,101641.97
2018-05-18T20:21:07.766Z,101642.17
2018-05-18T20:23:35.407Z,101642.36
2018-05-18T20:26:02.929Z,101643.07
2018-05-18T20:28:30.494Z,101636.16
2018-05-18T20:30:58.040Z,101636.55
2018-05-18T20:33:25.570Z,101645.55
2018-05-18T20:35:53.136Z,101642.56
2018-05-18T20:38:21.033Z,101643.12
2018-05-18T20:40:48.607Z,101643.24
2018-05-18T20:43:16.451Z,101652.45
2018-05-18T20:45:44.713Z,101650.98
2018-05-18T20:48:12.310Z,101650.15
2018-05-18T20:50:41.027Z,101652.19
2018-05-18T20:53:08.532Z,101649.78
2018-05-18T20:55:36.247Z,101645.44
2018-05-18T20:58:04.015Z,101648.91
2018-05-18T21:00:31.995Z,101649.03
2018-05-18T21:02:59.769Z,101648.78
2018-05-18T21:05:27.390Z,101645.61
2018-05-18T21:07:55.158Z,101643.36
2018-05-18T21:10:22.774Z,101648.19
2018-05-18T21:12:50.341Z,101654.05
2018-05-18T21:15:18.330Z,101656.67
2018-05-18T21:17:45.850Z,101651.72
2018-05-18T21:20:13.416Z,101655.62
2018-05-18T21:22:41.036Z,101655.58
2018-05-18T21:25:08.896Z,101651.58
2018-05-18T21:27:36.424Z,101655.00
2018-05-18T21:30:04.001Z,101652.69
2018-05-18T21:32:31.580Z,101644.37
2018-05-18T21:34:59.433Z,101650.91
2018-05-18T21:37:26.993Z,101655.95
2018-05-18T21:39:54.508Z,101655.02
2018-05-18T21:42:22.059Z,101659.95
2018-05-18T21:44:49.611Z,101655.62
2018-05-18T21:47:17.119Z,101654.14
2018-05-18T21:49:44.661Z,101657.23
2018-05-18T21:52:12.198Z,101656.06
2018-05-18T21:54:40.035Z,101654.95
2018-05-18T21:57:07.569Z,101656.91
2018-05-18T21:59:35.740Z,101662.94
2018-05-18T22:02:03.803Z,101663.47
2018-05-18T22:04:31.367Z,101665.73
2018-05-18T22:06:58.888Z,101669.84
2018-05-18T22:09:26.440Z,101666.78
2018-05-18T22:11:53.994Z,101669.96
2018-05-18T22:14:21.544Z,101669.58
2018-05-18T22:16:49.038Z,101669.86
2018-05-18T22:19:16.588Z,101670.12
2018-05-18T22:21:44.416Z,101670.87
2018-05-18T22:24:12.056Z,101671.63
2018-05-18T22:26:39.594Z,101667.28
2018-05-18T22:29:07.123Z,101675.59
2018-05-18T22:31:34.651Z,101672.22
2018-05-18T22:34:02.200Z,101673.66
2018-05-18T22:36:29.733Z,101671.14
2018-05-18T22:38:57.278Z,101671.31
2018-05-18T22:41:24.840Z,101671.59
2018-05-18T22:43:52.347Z,101673.84
2018-05-18T22:46:19.873Z,101668.90
2018-05-18T22:48:47.470Z,101671.74
2018-05-18T22:51:16.288Z,101666.55
2018-05-18T22:53:43.801Z,101669.78
2018-05-18T22:56:11.343Z,101665.20
2018-05-18T22:58:38.868Z,101667.33
2018-05-18T23:01:06.390Z,101664.41
2018-05-18T23:03:33.923Z,101667.21
2018-05-18T23:06:01.463Z,101672.97
2018-05-18T23:08:28.965Z,101664.83
2018-05-18T23:10:56.515Z,101673.09
2018-05-18T23:13:24.019Z,101668.81
2018-05-18T23:15:51.533Z,101672.67
2018-05-18T23:18:19.444Z,101666.64
2018-05-18T23:20:46.971Z,101669.61
2018-05-18T23:23:14.775Z,101667.09
2018-05-18T23:25:42.565Z,101666.30
2018-05-18T23:28:10.088Z,101670.70
2018-05-18T23:30:37.605Z,101675.03
2018-05-18T23:33:05.192Z,101670.09
2018-05-18T23:35:32.740Z,101667.80
2018-05-18T23:38:00.543Z,101672.83
2018-05-18T23:40:28.100Z,101669.09
2018-05-18T23:42:55.629Z,101669.00
2018-05-18T23:45:23.461Z,101665.69
2018-05-18T23:47:51.057Z,101663.73
2018-05-18T23:50:18.581Z,101659.98
2018-05-18T23:52:46.126Z,101656.39
2018-05-18T23:55:13.691Z,101653.20
2018-05-18T23:57:41.234Z,101658.01
